Aplicació Alertes

Dades de l'estació automàtica Ulldecona - els Valentins

?
?
Resum diari 22:30 TU
Dades diàries de l'estació meteorològica
Temperatura mitjana 9.1 °C
Temperatura màxima 13.1 °C 13:56 TU
Temperatura mínima 4.6 °C 5:15 TU
Humitat relativa mitjana 43%
Precipitació acumulada 0.0 mm
Ratxa màxima del vent (2 m) 36.7 km/h - 278º 2:04 TU
Irradiació solar global 9.5 MJ/m2

El tram horari està expressat en Temps Universal (TU). Cal sumar una hora en horari d'hivern i dues en horari d'estiu per passar a l'hora oficial.

Ulldecona - els Valentins

Metadades estació meteorol´gica
Municipi Ulldecona
Comarca Montsià
Altitud 210 m
Data alta 15.11.1990
Estat actual Operativa
Dades de període
Període
TU
TM
°C
TX
°C
TN
°C
HRM
%
PPT
mm
VVM (2 m)
km/h
DVM (2 m)
graus
VVX (2 m)
km/h
RS
W/m2
00:00 - 00:30 7.3 7.5 7.0 49 0.0 8.6 317 30.2 0
00:30 - 01:00 7.1 7.3 6.7 49 0.0 7.2 292 19.4 0
01:00 - 01:30 7.3 7.4 7.2 48 0.0 10.1 298 31.0 0
01:30 - 02:00 7.2 7.4 7.1 49 0.0 10.8 292 24.1 0
02:00 - 02:30 7.1 7.2 6.9 49 0.0 14.8 287 36.7 0
02:30 - 03:00 7.1 7.3 7.0 48 0.0 13.7 289 30.6 0
03:00 - 03:30 7.2 7.3 7.1 45 0.0 10.4 294 28.1 0
03:30 - 04:00 7.1 7.2 6.8 44 0.0 11.9 290 25.6 0
04:00 - 04:30 6.8 6.9 6.7 44 0.0 9.4 298 30.2 0
04:30 - 05:00 6.7 6.9 6.6 43 0.0 8.3 301 30.2 0
05:00 - 05:30 5.6 6.7 4.6 47 0.0 4.0 76 11.9 0
05:30 - 06:00 6.5 6.8 6.0 48 0.0 5.8 314 17.3 0
06:00 - 06:30 6.6 6.9 6.2 47 0.0 4.7 48 13.3 0
06:30 - 07:00 6.7 6.9 6.5 49 0.0 10.4 292 27.7 0
07:00 - 07:30 5.7 6.5 5.0 51 0.0 1.8 324 7.6 6
07:30 - 08:00 6.3 7.2 5.1 50 0.0 8.3 287 22.3 51
08:00 - 08:30 7.7 8.2 7.2 46 0.0 11.9 280 25.6 127
08:30 - 09:00 8.6 9.0 8.2 45 0.0 11.9 288 22.7 200
09:00 - 09:30 9.4 9.7 9.0 41 0.0 11.5 296 24.5 273
09:30 - 10:00 10.3 10.8 9.7 39 0.0 7.9 295 18.4 337
10:00 - 10:30 10.4 10.7 10.2 39 0.0 12.6 301 25.2 389
10:30 - 11:00 10.7 11.2 10.4 38 0.0 13.0 293 26.3 428
11:00 - 11:30 11.5 12.0 11.1 34 0.0 8.3 297 20.2 455
11:30 - 12:00 12.0 12.2 11.8 32 0.0 7.6 306 18.0 466
12:00 - 12:30 12.3 12.7 11.9 29 0.0 6.1 302 14.8 465
12:30 - 13:00 12.5 12.8 12.2 29 0.0 8.6 305 19.4 447
13:00 - 13:30 12.7 13.0 12.3 28 0.0 6.8 300 15.8 417
13:30 - 14:00 12.8 13.1 12.4 27 0.0 5.4 307 12.2 372
14:00 - 14:30 12.8 13.0 12.5 26 0.0 4.7 326 12.6 316
14:30 - 15:00 12.8 13.0 12.6 28 0.0 5.0 298 10.8 250
15:00 - 15:30 12.3 12.7 11.8 32 0.0 7.9 298 19.4 176
15:30 - 16:00 11.5 11.7 11.1 34 0.0 8.6 295 18.4 101
16:00 - 16:30 10.5 11.1 10.2 37 0.0 8.3 291 19.1 21
16:30 - 17:00 9.8 10.1 9.5 42 0.0 6.5 302 15.8 2
17:00 - 17:30 9.6 9.8 9.3 45 0.0 10.1 295 24.8 0
17:30 - 18:00 9.4 9.6 9.2 48 0.0 9.7 291 21.6 0
18:00 - 18:30 9.1 9.4 8.9 50 0.0 8.6 281 20.2 0
18:30 - 19:00 9.1 9.2 8.9 51 0.0 11.2 281 23.0 0
19:00 - 19:30 9.2 9.3 9.0 51 0.0 11.5 288 26.6 0
19:30 - 20:00 9.1 9.2 8.9 50 0.0 10.4 285 23.0 0
20:00 - 20:30 9.1 9.2 9.0 51 0.0 13.7 291 28.8 0
20:30 - 21:00 9.2 9.3 9.1 51 0.0 13.3 294 29.2 0
21:00 - 21:30 9.1 9.2 9.0 53 0.0 14.8 288 29.5 0
21:30 - 22:00 9.1 9.2 8.9 53 0.0 12.6 289 25.2 0
22:00 - 22:30 9.1 9.3 8.9 52 0.0 8.3 302 27.0 0
22:30 - 23:00 8.8 8.9 8.6 53 0.0 5.0 309 14.0 0

Les dades en taronja només han passat un control de qualitat automàtic. Resta pendent la seva validació definitiva.